createdAt,value
2019-03-29T00:03:36.809Z,71.41
2019-03-29T00:07:43.464Z,71.12
2019-03-29T00:11:50.105Z,70.49
2019-03-29T00:15:56.840Z,70.63
2019-03-29T00:20:06.177Z,71.19
2019-03-29T00:24:12.091Z,71.15
2019-03-29T00:28:18.733Z,71.52
2019-03-29T00:32:25.391Z,71.16
2019-03-29T00:36:32.275Z,71.12
2019-03-29T00:40:38.898Z,71.79
2019-03-29T00:44:45.819Z,71.74
2019-03-29T00:48:52.515Z,71.29
2019-03-29T00:52:59.602Z,71.92
2019-03-29T00:57:06.243Z,72.11
2019-03-29T01:01:12.928Z,71.90
2019-03-29T01:05:20.222Z,72.44
2019-03-29T01:09:28.245Z,72.28
2019-03-29T01:13:34.921Z,72.10
2019-03-29T01:17:41.929Z,72.27
2019-03-29T01:21:48.966Z,72.15
2019-03-29T01:25:55.701Z,71.84
2019-03-29T01:30:02.297Z,71.95
2019-03-29T01:34:08.920Z,72.18
2019-03-29T01:38:21.608Z,71.81
2019-03-29T01:42:24.319Z,72.01
2019-03-29T01:46:30.981Z,71.53
2019-03-29T01:50:37.708Z,72.21
2019-03-29T01:54:44.329Z,72.67
2019-03-29T01:58:51.224Z,72.33
2019-03-29T02:02:57.829Z,72.51
2019-03-29T02:07:04.805Z,71.76
2019-03-29T02:11:11.485Z,72.64
2019-03-29T02:15:18.289Z,72.14
2019-03-29T02:19:24.930Z,72.23
2019-03-29T02:23:31.581Z,71.79
2019-03-29T02:27:39.969Z,71.68
2019-03-29T02:31:46.623Z,71.67
2019-03-29T02:35:53.197Z,72.75
2019-03-29T02:39:59.856Z,72.24
2019-03-29T02:44:07.627Z,72.19
2019-03-29T02:48:16.823Z,72.67
2019-03-29T02:52:23.376Z,73.30
2019-03-29T02:56:30.056Z,72.20
2019-03-29T03:00:36.678Z,72.60
2019-03-29T03:04:43.335Z,72.29
2019-03-29T03:08:50.065Z,72.76
2019-03-29T03:12:56.758Z,73.56
2019-03-29T03:17:03.969Z,72.35
2019-03-29T03:21:10.565Z,73.26
2019-03-29T03:25:17.435Z,73.52
2019-03-29T03:29:24.336Z,73.03
2019-03-29T03:33:30.998Z,73.91
2019-03-29T03:37:37.667Z,73.97
2019-03-29T03:41:44.302Z,74.14
2019-03-29T03:45:51.533Z,73.42
2019-03-29T03:50:00.831Z,74.36
2019-03-29T03:54:06.920Z,73.94
2019-03-29T03:58:15.461Z,74.60
2019-03-29T04:02:22.171Z,75.18
2019-03-29T04:06:28.774Z,74.27
2019-03-29T04:10:35.710Z,74.61
2019-03-29T04:14:42.359Z,74.31
2019-03-29T04:18:49.469Z,73.93
2019-03-29T04:22:56.122Z,73.31
2019-03-29T04:27:02.955Z,74.11
2019-03-29T04:31:09.614Z,73.77
2019-03-29T04:35:16.982Z,74.10
2019-03-29T04:39:24.037Z,74.44
2019-03-29T04:43:30.666Z,74.42
2019-03-29T04:47:38.197Z,74.40
2019-03-29T04:51:44.890Z,73.70
2019-03-29T04:55:51.537Z,74.16
2019-03-29T04:59:58.261Z,74.25
2019-03-29T05:04:04.865Z,74.93
2019-03-29T05:08:11.692Z,74.52
2019-03-29T05:12:19.281Z,74.92
2019-03-29T05:16:25.954Z,74.80
2019-03-29T05:20:32.803Z,75.29
2019-03-29T05:24:42.444Z,74.91
2019-03-29T05:28:49.348Z,74.58
2019-03-29T05:32:56.208Z,75.01
2019-03-29T05:37:03.417Z,75.08
2019-03-29T05:41:10.628Z,75.42
2019-03-29T05:45:18.545Z,75.41
2019-03-29T05:49:25.428Z,75.64
2019-03-29T05:53:32.072Z,75.94
2019-03-29T05:57:39.071Z,75.49
2019-03-29T06:01:45.913Z,75.55
2019-03-29T06:05:52.593Z,75.43
2019-03-29T06:10:01.861Z,75.67
2019-03-29T06:14:09.005Z,75.55
2019-03-29T06:18:16.133Z,75.76
2019-03-29T06:22:23.297Z,75.56
2019-03-29T06:26:29.944Z,75.48
2019-03-29T06:30:36.697Z,75.72
2019-03-29T06:34:43.563Z,75.56
2019-03-29T06:38:52.117Z,75.02
2019-03-29T06:43:57.102Z,75.91
2019-03-29T06:48:03.734Z,76.24
2019-03-29T06:52:10.400Z,76.29
2019-03-29T06:56:17.025Z,76.23
2019-03-29T07:00:24.062Z,75.57
2019-03-29T07:04:31.078Z,75.82
2019-03-29T07:08:37.831Z,75.56
2019-03-29T07:12:44.661Z,74.69
2019-03-29T07:16:51.424Z,74.77
2019-03-29T07:20:58.526Z,73.29
2019-03-29T07:25:06.027Z,72.65
2019-03-29T07:29:13.550Z,72.03
2019-03-29T07:33:20.587Z,71.94
2019-03-29T07:37:27.409Z,71.13
2019-03-29T07:41:34.955Z,70.67
2019-03-29T07:45:42.438Z,70.12
2019-03-29T07:49:49.220Z,70.41
2019-03-29T07:53:55.856Z,69.65
2019-03-29T07:58:03.489Z,69.72
2019-03-29T08:02:10.328Z,68.29
2019-03-29T08:06:16.945Z,69.54
2019-03-29T08:10:29.169Z,68.06
2019-03-29T08:14:33.069Z,66.89
2019-03-29T08:18:39.893Z,66.35
2019-03-29T08:22:46.570Z,66.24
2019-03-29T08:26:53.628Z,66.78
2019-03-29T08:31:00.871Z,65.59
2019-03-29T08:35:08.012Z,64.61
2019-03-29T08:39:27.224Z,64.53
2019-03-29T08:43:23.525Z,64.65
2019-03-29T08:47:30.608Z,64.88
2019-03-29T08:51:37.691Z,63.12
2019-03-29T08:55:46.172Z,63.70
2019-03-29T08:59:52.961Z,63.12
2019-03-29T09:04:05.226Z,63.68
2019-03-29T09:08:08.668Z,63.63
2019-03-29T09:12:19.757Z,62.60
2019-03-29T09:16:26.985Z,62.04
2019-03-29T09:20:34.656Z,62.39
2019-03-29T09:24:41.857Z,61.71
2019-03-29T09:28:48.719Z,61.61
2019-03-29T09:32:55.517Z,62.11
2019-03-29T09:37:10.895Z,60.62
2019-03-29T09:41:17.944Z,60.66
2019-03-29T09:45:24.596Z,60.75
2019-03-29T09:49:31.252Z,60.47
2019-03-29T09:53:40.986Z,59.65
2019-03-29T09:57:46.661Z,60.10
2019-03-29T10:01:54.226Z,59.82
2019-03-29T10:06:01.112Z,58.12
2019-03-29T10:10:08.269Z,58.57
2019-03-29T10:14:14.984Z,57.95
2019-03-29T10:18:22.064Z,56.88
2019-03-29T10:22:28.669Z,56.33
2019-03-29T10:26:36.926Z,56.66
2019-03-29T10:30:47.260Z,56.47
2019-03-29T10:34:54.086Z,56.19
2019-03-29T10:39:00.745Z,55.79
2019-03-29T10:43:10.910Z,54.82
2019-03-29T10:47:17.980Z,55.13
2019-03-29T10:51:24.625Z,54.62
2019-03-29T10:55:31.449Z,55.16
2019-03-29T10:59:38.184Z,54.95
2019-03-29T11:03:44.904Z,54.50
2019-03-29T11:07:52.038Z,54.96
2019-03-29T11:11:58.772Z,55.29
2019-03-29T11:16:05.998Z,54.08
2019-03-29T11:20:12.659Z,54.59
2019-03-29T11:24:20.176Z,54.45
2019-03-29T11:28:27.110Z,52.35
2019-03-29T11:32:34.220Z,53.87
2019-03-29T11:36:40.886Z,52.92
2019-03-29T11:40:47.696Z,52.69
2019-03-29T11:44:54.339Z,51.43
2019-03-29T11:49:01.236Z,51.12
2019-03-29T11:53:07.918Z,47.56
2019-03-29T11:57:14.831Z,48.89
2019-03-29T12:01:21.568Z,50.09
2019-03-29T12:05:28.236Z,47.83
2019-03-29T12:09:35.146Z,47.76
2019-03-29T12:13:42.052Z,48.99
2019-03-29T12:17:48.791Z,47.16
2019-03-29T12:21:55.917Z,48.37
2019-03-29T12:26:02.967Z,48.69
2019-03-29T12:30:23.675Z,48.13
2019-03-29T12:34:21.368Z,49.06
2019-03-29T12:38:28.178Z,48.24
2019-03-29T12:42:34.916Z,49.73
2019-03-29T12:46:46.881Z,48.66
2019-03-29T12:50:53.746Z,48.17
2019-03-29T12:55:00.371Z,47.79
2019-03-29T12:59:07.185Z,47.99
2019-03-29T13:03:13.869Z,47.84
2019-03-29T13:07:20.693Z,48.38
2019-03-29T13:11:27.770Z,48.49
2019-03-29T13:15:34.578Z,47.78
2019-03-29T13:19:47.783Z,47.13
2019-03-29T13:23:54.748Z,48.96
2019-03-29T13:28:01.577Z,48.13
2019-03-29T13:32:08.785Z,48.32
2019-03-29T13:36:15.974Z,47.17
2019-03-29T13:40:23.053Z,47.88
2019-03-29T13:44:46.572Z,47.64
2019-03-29T13:48:53.386Z,46.28
2019-03-29T13:53:00.512Z,46.26
2019-03-29T13:57:07.282Z,46.17
2019-03-29T14:01:14.171Z,47.09
2019-03-29T14:05:20.940Z,46.08
2019-03-29T14:09:30.239Z,47.13
2019-03-29T14:13:37.000Z,46.80
2019-03-29T14:17:44.122Z,45.87
2019-03-29T14:21:50.945Z,45.33
2019-03-29T14:25:58.023Z,46.07
2019-03-29T14:30:05.631Z,45.11
2019-03-29T14:34:12.443Z,45.17
2019-03-29T14:38:19.278Z,45.38
2019-03-29T14:42:25.966Z,46.02
2019-03-29T14:46:32.916Z,46.34
2019-03-29T14:50:39.677Z,45.33
2019-03-29T14:54:46.789Z,48.06
2019-03-29T14:58:53.520Z,45.72
2019-03-29T15:03:00.250Z,45.95
2019-03-29T15:07:09.132Z,46.84
2019-03-29T15:11:22.067Z,47.14
2019-03-29T15:15:24.364Z,47.12
2019-03-29T15:19:31.043Z,45.27
2019-03-29T15:23:38.395Z,45.45
2019-03-29T15:27:45.176Z,45.96
2019-03-29T15:54:25.324Z,41.69
2019-03-29T15:58:33.112Z,43.62
2019-03-29T16:04:13.608Z,43.76
2019-03-29T16:08:20.072Z,44.06
2019-03-29T16:12:26.776Z,43.62
2019-03-29T16:16:32.971Z,44.98
2019-03-29T16:20:39.303Z,44.53
2019-03-29T16:24:45.806Z,44.09
2019-03-29T16:28:52.189Z,43.57
2019-03-29T16:32:58.565Z,44.77
2019-03-29T16:37:04.931Z,44.12
2019-03-29T16:41:11.505Z,46.48
2019-03-29T16:45:17.785Z,44.86
2019-03-29T17:03:40.853Z,44.50
2019-03-29T17:06:07.174Z,45.05
2019-03-29T17:08:34.001Z,44.20
2019-03-29T17:11:00.491Z,44.30
2019-03-29T17:13:27.113Z,44.19
2019-03-29T17:16:01.510Z,45.27
2019-03-29T17:18:29.170Z,44.70
2019-03-29T17:20:50.713Z,46.92
2019-03-29T17:23:21.521Z,45.93
2019-03-29T17:25:48.083Z,45.65
2019-03-29T17:28:14.571Z,45.22
2019-03-29T17:30:45.824Z,46.12
2019-03-29T17:33:12.231Z,46.06
2019-03-29T17:35:38.550Z,45.52
2019-03-29T17:38:04.910Z,45.37
2019-03-29T17:40:31.228Z,45.81
2019-03-29T17:42:57.601Z,46.84
2019-03-29T17:45:23.933Z,48.89
2019-03-29T17:47:50.178Z,47.65
2019-03-29T17:50:18.322Z,48.12
2019-03-29T17:52:44.704Z,48.13
2019-03-29T17:55:12.350Z,48.64
2019-03-29T17:57:38.669Z,48.89
2019-03-29T18:00:06.658Z,49.67
2019-03-29T18:02:32.936Z,50.04
2019-03-29T18:04:59.349Z,50.13
2019-03-29T18:07:25.705Z,50.81
2019-03-29T18:09:51.950Z,50.38
2019-03-29T18:12:18.206Z,51.33
2019-03-29T18:14:44.505Z,51.21
2019-03-29T18:17:10.934Z,52.09
2019-03-29T18:19:37.628Z,52.31
2019-03-29T18:22:04.224Z,51.49
2019-03-29T18:24:30.524Z,53.20
2019-03-29T18:26:56.884Z,53.68
2019-03-29T18:29:23.249Z,53.97
2019-03-29T18:31:49.939Z,54.07
2019-03-29T18:34:16.469Z,53.57
2019-03-29T18:36:46.504Z,54.28
2019-03-29T18:39:12.848Z,54.36
2019-03-29T18:41:39.101Z,54.82
2019-03-29T18:44:05.437Z,55.23
2019-03-29T18:46:43.884Z,55.22
2019-03-29T18:48:59.800Z,55.54
2019-03-29T18:51:26.090Z,54.87
2019-03-29T18:53:52.604Z,56.25
2019-03-29T18:56:19.333Z,54.71
2019-03-29T18:58:45.672Z,56.37
2019-03-29T19:01:12.166Z,56.30
2019-03-29T19:03:38.565Z,56.71
2019-03-29T19:06:05.286Z,57.21
2019-03-29T19:08:31.742Z,57.73
2019-03-29T19:10:58.144Z,57.44
2019-03-29T19:13:25.042Z,57.84
2019-03-29T19:16:00.151Z,57.86
2019-03-29T19:18:26.702Z,58.00
2019-03-29T19:20:53.155Z,58.55
2019-03-29T19:23:19.611Z,58.32
2019-03-29T19:25:46.300Z,58.34
2019-03-29T19:28:12.596Z,58.44
2019-03-29T19:30:38.980Z,58.43
2019-03-29T19:33:05.880Z,58.03
2019-03-29T19:35:32.318Z,57.12
2019-03-29T19:37:59.275Z,57.99
2019-03-29T19:40:25.839Z,58.37
2019-03-29T19:42:52.408Z,58.04
2019-03-29T19:45:19.461Z,58.32
2019-03-29T19:47:53.939Z,58.42
2019-03-29T19:50:21.311Z,58.43
2019-03-29T19:52:49.983Z,58.61
2019-03-29T19:55:16.749Z,59.23
2019-03-29T19:57:46.367Z,59.52
2019-03-29T20:00:15.065Z,59.85
2019-03-29T20:02:41.735Z,60.34
2019-03-29T20:05:13.841Z,60.31
2019-03-29T20:07:40.690Z,59.96
2019-03-29T20:10:08.333Z,60.22
2019-03-29T20:12:34.923Z,60.35
2019-03-29T20:15:01.763Z,60.58
2019-03-29T20:17:28.360Z,60.72
2019-03-29T20:19:55.039Z,60.83
2019-03-29T20:22:21.635Z,61.04
2019-03-29T20:24:48.482Z,61.49
2019-03-29T20:27:15.150Z,61.13
2019-03-29T20:29:41.729Z,61.63
2019-03-29T20:32:08.322Z,61.74
2019-03-29T20:34:34.898Z,61.88
2019-03-29T20:37:01.820Z,61.49
2019-03-29T20:39:28.550Z,61.62
2019-03-29T20:41:55.029Z,61.58
2019-03-29T20:44:21.484Z,61.46
2019-03-29T20:46:51.020Z,61.93
2019-03-29T20:49:17.547Z,62.04
2019-03-29T20:51:43.917Z,62.15
2019-03-29T20:54:10.433Z,62.03
2019-03-29T20:56:36.801Z,62.96
2019-03-29T20:59:03.603Z,62.54
2019-03-29T21:01:30.069Z,62.49
2019-03-29T21:03:56.405Z,62.60
2019-03-29T21:06:22.782Z,62.44
2019-03-29T21:08:49.548Z,62.87
2019-03-29T21:11:17.844Z,63.10
2019-03-29T21:13:44.162Z,63.28
2019-03-29T21:16:10.970Z,63.54
2019-03-29T21:18:37.636Z,63.57
2019-03-29T21:21:03.995Z,63.48
2019-03-29T21:23:32.946Z,63.79
2019-03-29T21:26:01.464Z,63.75
2019-03-29T21:28:40.043Z,63.44
2019-03-29T21:31:06.418Z,63.27
2019-03-29T21:33:32.697Z,63.20
2019-03-29T21:35:58.979Z,63.34
2019-03-29T21:38:25.307Z,63.20
2019-03-29T21:40:51.540Z,63.57
2019-03-29T21:43:17.780Z,63.81
2019-03-29T21:45:50.542Z,63.93
2019-03-29T21:48:28.610Z,63.70
2019-03-29T21:50:46.197Z,64.21
2019-03-29T21:53:12.604Z,63.76
2019-03-29T21:55:39.250Z,64.14
2019-03-29T21:58:05.551Z,64.58
2019-03-29T22:00:32.142Z,64.50
2019-03-29T22:02:59.960Z,64.89
2019-03-29T22:05:26.315Z,64.72
2019-03-29T22:07:52.792Z,64.86
2019-03-29T22:10:19.384Z,64.94
2019-03-29T22:12:45.870Z,64.88
2019-03-29T22:15:13.102Z,64.99
2019-03-29T22:17:39.426Z,64.86
2019-03-29T22:20:07.705Z,64.73
2019-03-29T22:22:34.132Z,64.84
2019-03-29T22:25:00.408Z,65.21
2019-03-29T22:27:27.058Z,65.24
2019-03-29T22:29:56.464Z,65.20
2019-03-29T22:32:28.172Z,64.81
2019-03-29T22:34:56.299Z,65.41
2019-03-29T22:37:22.882Z,65.18
2019-03-29T22:39:49.210Z,65.24
2019-03-29T22:42:16.628Z,65.84
2019-03-29T22:44:43.129Z,65.96
2019-03-29T22:47:09.623Z,65.93
2019-03-29T22:49:35.870Z,65.50
2019-03-29T22:52:02.551Z,65.74
2019-03-29T22:54:29.421Z,65.55
2019-03-29T22:56:56.125Z,65.63
2019-03-29T22:59:22.302Z,65.47
2019-03-29T23:01:49.939Z,65.88
2019-03-29T23:04:16.268Z,65.44
2019-03-29T23:06:42.769Z,65.23
2019-03-29T23:09:12.778Z,65.42
2019-03-29T23:11:39.119Z,66.10
2019-03-29T23:14:05.449Z,66.10
2019-03-29T23:16:32.837Z,65.77
2019-03-29T23:19:06.378Z,66.15
2019-03-29T23:21:27.149Z,65.77
2019-03-29T23:23:53.505Z,66.39
2019-03-29T23:26:19.776Z,66.23
2019-03-29T23:28:46.088Z,66.14
2019-03-29T23:31:12.361Z,66.20
2019-03-29T23:33:38.935Z,66.33
2019-03-29T23:36:07.190Z,66.57
2019-03-29T23:38:34.881Z,65.95
2019-03-29T23:41:01.555Z,66.69
2019-03-29T23:43:28.683Z,66.85
2019-03-29T23:45:54.945Z,66.93
2019-03-29T23:48:21.216Z,66.24
2019-03-29T23:50:47.771Z,66.61
2019-03-29T23:53:14.078Z,66.32
2019-03-29T23:55:40.383Z,66.60
2019-03-29T23:58:06.644Z,66.97
